Time;durP1;ratioP1;P1;durP2;ratioP2;P2;SDS_P1;SDS_P2;PMS_P1;PMS_P2;Temp;Humidity;BMP_temperature;BMP_pressure;BME280_temperature;BME280_humidity;BME280_pressure;Samples;Min_cycle;Max_cycle;Signal;HPM_P1;HPM_P2
2022/12/23 00:01:44;;;;;;;2.57;1.37;;;;;;;;;;5073384;28;20033;-63
2022/12/23 00:04:11;;;;;;;6.60;1.50;;;;;;;;;;5073701;28;20078;-66
2022/12/23 00:06:38;;;;;;;2.37;0.80;;;;;;;;;;5072827;28;20029;-63
2022/12/23 00:09:04;;;;;;;0.53;0.53;;;;;;;;;;5073785;28;20541;-63
2022/12/23 00:11:31;;;;;;;0.93;0.70;;;;;;;;;;5073118;28;20031;-63
2022/12/23 00:16:43;;;;;;;1.13;0.90;;;;;;;;;;5067728;28;20094;-64
2022/12/23 00:19:10;;;;;;;2.63;1.40;;;;;;;;;;5067741;28;20115;-63
2022/12/23 00:21:36;;;;;;;2.13;0.90;;;;;;;;;;5067502;28;20036;-63
2022/12/23 00:24:03;;;;;;;9.10;1.33;;;;;;;;;;5073447;28;20406;-63
2022/12/23 00:26:30;;;;;;;9.57;1.73;;;;;;;;;;5072908;28;20493;-63
2022/12/23 00:28:57;;;;;;;2.77;1.10;;;;;;;;;;5073110;28;20033;-63
2022/12/23 00:31:24;;;;;;;1.40;0.83;;;;;;;;;;5073188;28;20102;-63
2022/12/23 00:33:53;;;;;;;1.33;0.83;;;;;;;;;;5072723;28;20107;-68
2022/12/23 00:36:21;;;;;;;2.27;1.10;;;;;;;;;;5067447;28;20032;-64
2022/12/23 00:44:18;;;;;;;3.43;0.93;;;;;;;;;;5067653;28;20090;-63
2022/12/23 00:46:45;;;;;;;2.87;0.73;;;;;;;;;;5072810;28;20033;-64
2022/12/23 00:51:58;;;;;;;5.27;1.00;;;;;;;;;;5073061;28;20066;-62
2022/12/23 00:54:25;;;;;;;9.47;1.27;;;;;;;;;;5072646;28;20039;-66
2022/12/23 00:56:51;;;;;;;1.60;0.80;;;;;;;;;;5070822;28;20387;-62
2022/12/23 00:59:18;;;;;;;3.00;1.00;;;;;;;;;;5067092;28;20028;-63
2022/12/23 01:07:14;;;;;;;0.97;0.70;;;;;;;;;;5068850;28;19915;-63
2022/12/23 01:09:41;;;;;;;2.13;0.57;;;;;;;;;;5072607;28;20017;-63
2022/12/23 01:12:08;;;;;;;2.33;1.00;;;;;;;;;;5072367;28;20025;-64
2022/12/23 01:14:34;;;;;;;0.83;0.53;;;;;;;;;;5072533;28;20028;-63
2022/12/23 01:17:01;;;;;;;7.03;1.20;;;;;;;;;;5072336;28;20094;-63
2022/12/23 01:19:28;;;;;;;2.50;1.43;;;;;;;;;;5070035;28;20138;-64
2022/12/23 01:21:55;;;;;;;1.57;1.03;;;;;;;;;;5065379;28;20107;-63
2022/12/23 01:24:22;;;;;;;1.10;0.60;;;;;;;;;;5066643;28;20031;-63
2022/12/23 01:26:48;;;;;;;1.13;0.70;;;;;;;;;;5066422;28;20471;-63
2022/12/23 01:29:15;;;;;;;1.60;0.90;;;;;;;;;;5068280;28;20096;-63
2022/12/23 01:31:42;;;;;;;1.40;0.90;;;;;;;;;;5072259;28;20029;-63
2022/12/23 01:34:09;;;;;;;0.70;0.67;;;;;;;;;;5071978;28;20020;-63
2022/12/23 01:36:36;;;;;;;4.20;1.00;;;;;;;;;;5071754;28;20032;-63
2022/12/23 01:39:02;;;;;;;1.43;0.77;;;;;;;;;;5071751;28;20036;-63
2022/12/23 01:44:34;;;;;;;3.90;1.03;;;;;;;;;;5067021;28;20093;-63
2022/12/23 01:47:00;;;;;;;;;;;;;;;;;;5066469;28;20024;-64
2022/12/23 01:49:27;;;;;;;1.20;1.00;;;;;;;;;;5066550;28;20199;-63
2022/12/23 01:51:53;;;;;;;0.63;0.53;;;;;;;;;;5068548;28;20055;-63
2022/12/23 01:54:22;;;;;;;1.70;1.07;;;;;;;;;;5071824;28;20389;-63
2022/12/23 01:56:49;;;;;;;0.80;0.60;;;;;;;;;;5072124;28;20115;-63
2022/12/23 02:03:41;;;;;;;2.13;1.10;;;;;;;;;;5071891;28;20036;-63
2022/12/23 02:04:48;;;;;;;2.30;0.82;;;;;;;;;;5067271;28;20035;-63
2022/12/23 02:10:00;;;;;;;0.70;0.40;;;;;;;;;;5066675;28;20503;-63
2022/12/23 02:12:36;;;;;;;0.83;0.53;;;;;;;;;;5066116;28;20383;-63
2022/12/23 02:18:08;;;;;;;0.50;0.40;;;;;;;;;;5071813;28;20056;-63
2022/12/23 02:20:47;;;;;;;2.20;0.73;;;;;;;;;;5071765;28;20035;-63
2022/12/23 02:23:26;;;;;;;0.93;0.80;;;;;;;;;;5051884;28;20025;-63
2022/12/23 02:26:01;;;;;;;1.20;0.57;;;;;;;;;;5069470;28;20544;-63
2022/12/23 02:28:28;;;;;;;0.37;0.37;;;;;;;;;;5065532;28;20352;-63
2022/12/23 02:31:01;;;;;;;0.40;0.30;;;;;;;;;;5065950;28;20478;-63
2022/12/23 02:33:41;;;;;;;1.87;0.97;;;;;;;;;;5066926;28;20025;-63
2022/12/23 02:36:34;;;;;;;2.67;1.23;;;;;;;;;;5071247;28;20411;-63
2022/12/23 02:39:04;;;;;;;0.40;0.33;;;;;;;;;;5051917;28;20561;-63
2022/12/23 02:41:37;;;;;;;0.47;0.37;;;;;;;;;;5071701;28;20120;-63
2022/12/23 02:44:22;;;;;;;4.43;1.27;;;;;;;;;;5055139;28;20032;-63
2022/12/23 02:46:48;;;;;;;;;;;;;;;;;;5066376;28;20124;-63
2022/12/23 02:49:26;;;;;;;4.97;2.50;;;;;;;;;;5071772;28;20248;-63
2022/12/23 02:51:54;;;;;;;21.83;3.20;;;;;;;;;;5069289;28;20028;-63
2022/12/23 02:54:28;;;;;;;6.30;3.47;;;;;;;;;;5068698;28;20027;-63
2022/12/23 02:56:56;;;;;;;3.53;2.43;;;;;;;;;;5069472;28;20040;-63
2022/12/23 02:59:30;;;;;;;5.60;2.67;;;;;;;;;;5072994;28;20028;-62
2022/12/23 03:01:57;;;;;;;3.80;1.55;;;;;;;;;;5074612;28;20028;-63
2022/12/23 03:04:24;;;;;;;6.67;1.63;;;;;;;;;;5075217;28;20376;-62
2022/12/23 03:06:55;;;;;;;3.87;1.80;;;;;;;;;;5074355;28;20087;-63
2022/12/23 03:09:32;;;;;;;4.20;2.20;;;;;;;;;;5074326;28;20055;-63
2022/12/23 03:12:10;;;;;;;2.50;1.60;;;;;;;;;;5069791;28;20035;-63
2022/12/23 03:14:49;;;;;;;11.53;3.03;;;;;;;;;;5069391;28;20037;-63
2022/12/23 03:17:28;;;;;;;4.40;2.43;;;;;;;;;;5054485;28;20036;-63
2022/12/23 03:20:13;;;;;;;3.80;2.50;;;;;;;;;;5069229;28;20025;-62
2022/12/23 03:22:46;;;;;;;11.98;3.92;;;;;;;;;;5074165;28;20028;-63
2022/12/23 03:25:17;;;;;;;6.80;3.30;;;;;;;;;;5074727;28;20021;-62
2022/12/23 03:27:52;;;;;;;4.80;2.60;;;;;;;;;;5074201;28;20494;-62
2022/12/23 03:30:19;;;;;;;2.55;1.65;;;;;;;;;;5074347;28;20024;-63
2022/12/23 03:33:01;;;;;;;3.57;2.30;;;;;;;;;;5073145;28;20033;-63
2022/12/23 03:35:34;;;;;;;5.23;3.03;;;;;;;;;;5068822;28;20028;-63
2022/12/23 03:38:02;;;;;;;5.43;2.23;;;;;;;;;;5068090;28;20412;-63
2022/12/23 03:40:50;;;;;;;2.50;1.70;;;;;;;;;;5068560;28;20079;-62
2022/12/23 03:43:22;;;;;;;3.33;1.77;;;;;;;;;;5070922;28;20416;-67
2022/12/23 03:45:53;;;;;;;2.90;1.53;;;;;;;;;;5072990;28;20025;-62
2022/12/23 03:48:38;;;;;;;2.27;1.60;;;;;;;;;;5072593;28;20046;-63
2022/12/23 03:51:07;;;;;;;2.42;1.42;;;;;;;;;;5073845;28;20029;-62
2022/12/23 03:53:39;;;;;;;2.50;1.23;;;;;;;;;;5073604;28;20101;-65
2022/12/23 03:56:08;;;;;;;11.23;1.77;;;;;;;;;;5070218;28;20035;-63
2022/12/23 03:58:48;;;;;;;2.47;1.63;;;;;;;;;;5068116;28;20028;-62
2022/12/23 04:01:24;;;;;;;6.57;1.53;;;;;;;;;;5068311;28;20032;-63
2022/12/23 04:03:50;;;;;;;1.57;1.00;;;;;;;;;;5066846;28;20025;-66
2022/12/23 04:06:19;;;;;;;3.57;1.20;;;;;;;;;;5071614;28;20016;-63
2022/12/23 04:08:48;;;;;;;2.30;0.97;;;;;;;;;;5072688;28;20406;-63
2022/12/23 04:11:14;;;;;;;0.90;0.70;;;;;;;;;;5073378;28;20431;-62
2022/12/23 04:13:41;;;;;;;2.93;1.40;;;;;;;;;;5072888;28;20021;-62
2022/12/23 04:16:08;;;;;;;1.03;0.73;;;;;;;;;;5072918;28;20020;-63
2022/12/23 04:18:34;;;;;;;0.47;0.47;;;;;;;;;;5068053;28;20028;-63
2022/12/23 04:21:01;;;;;;;1.90;1.13;;;;;;;;;;5061931;28;20115;-63
2022/12/23 04:23:28;;;;;;;4.03;1.50;;;;;;;;;;5066530;28;20031;-62
2022/12/23 04:25:54;;;;;;;3.47;1.23;;;;;;;;;;5065594;28;20533;-62
2022/12/23 04:28:21;;;;;;;3.07;1.60;;;;;;;;;;5053481;28;20116;-62
2022/12/23 04:30:48;;;;;;;2.50;0.97;;;;;;;;;;5068952;28;20039;-62
2022/12/23 04:33:14;;;;;;;1.47;1.07;;;;;;;;;;5070871;28;20032;-63
2022/12/23 04:35:41;;;;;;;1.90;1.27;;;;;;;;;;5072230;28;20025;-62
2022/12/23 04:38:08;;;;;;;1.10;0.83;;;;;;;;;;5071934;28;20032;-62
2022/12/23 04:40:34;;;;;;;1.03;0.80;;;;;;;;;;5069735;28;20078;-63
2022/12/23 04:43:01;;;;;;;3.43;1.40;;;;;;;;;;5058582;28;20103;-63
2022/12/23 04:45:28;;;;;;;0.83;0.60;;;;;;;;;;5067612;28;20514;-62
2022/12/23 04:47:55;;;;;;;2.03;1.10;;;;;;;;;;5067001;28;20025;-62
2022/12/23 04:50:21;;;;;;;1.93;1.00;;;;;;;;;;5066240;28;20025;-62
2022/12/23 04:52:48;;;;;;;1.67;1.17;;;;;;;;;;5066006;28;20056;-62
2022/12/23 04:55:15;;;;;;;0.87;0.60;;;;;;;;;;5070972;28;20078;-63
2022/12/23 04:57:41;;;;;;;1.50;0.90;;;;;;;;;;5070991;28;20028;-63
2022/12/23 05:00:08;;;;;;;1.73;1.20;;;;;;;;;;5072211;28;20095;-63
2022/12/23 05:02:35;;;;;;;3.07;1.17;;;;;;;;;;5069712;28;20036;-63
2022/12/23 05:05:02;;;;;;;2.73;1.33;;;;;;;;;;5067274;28;20031;-63
2022/12/23 05:07:28;;;;;;;1.83;1.20;;;;;;;;;;5067203;28;20111;-63
2022/12/23 05:10:00;;;;;;;3.47;1.43;;;;;;;;;;5066653;28;20027;-63
2022/12/23 05:12:29;;;;;;;1.93;1.13;;;;;;;;;;5068732;28;20055;-63
2022/12/23 05:14:56;;;;;;;1.63;1.07;;;;;;;;;;5069416;28;20028;-62
2022/12/23 05:17:23;;;;;;;2.33;1.60;;;;;;;;;;5072422;28;20040;-63
2022/12/23 05:19:49;;;;;;;4.20;1.23;;;;;;;;;;5072642;28;20472;-63
2022/12/23 05:22:16;;;;;;;1.07;0.63;;;;;;;;;;5072264;28;20116;-62
2022/12/23 05:24:43;;;;;;;1.57;1.17;;;;;;;;;;5069572;28;20091;-63
2022/12/23 05:27:09;;;;;;;1.03;0.90;;;;;;;;;;5066400;28;20032;-63
2022/12/23 05:29:36;;;;;;;1.47;1.00;;;;;;;;;;5066866;28;20439;-63
2022/12/23 05:32:03;;;;;;;1.73;1.10;;;;;;;;;;5066905;28;20036;-63
2022/12/23 05:34:29;;;;;;;3.10;1.10;;;;;;;;;;5068710;28;20487;-63
2022/12/23 05:36:56;;;;;;;0.73;0.60;;;;;;;;;;5072108;28;20025;-63
2022/12/23 05:39:23;;;;;;;11.83;1.43;;;;;;;;;;5072470;28;20024;-63
2022/12/23 05:41:50;;;;;;;1.27;0.97;;;;;;;;;;5071889;28;20032;-67
2022/12/23 05:44:16;;;;;;;0.67;0.57;;;;;;;;;;5071555;28;20111;-63
2022/12/23 05:46:43;;;;;;;1.83;0.93;;;;;;;;;;5069879;28;20418;-63
2022/12/23 05:49:09;;;;;;;3.30;1.83;;;;;;;;;;5066651;28;20103;-62
2022/12/23 05:51:36;;;;;;;3.73;1.80;;;;;;;;;;5066649;28;20028;-62
2022/12/23 05:54:03;;;;;;;7.17;1.97;;;;;;;;;;5066370;28;20040;-62
2022/12/23 05:56:30;;;;;;;1.30;1.17;;;;;;;;;;5067824;28;20123;-62
2022/12/23 05:58:56;;;;;;;2.57;1.60;;;;;;;;;;5071576;28;20020;-66
2022/12/23 06:01:23;;;;;;;1.43;1.13;;;;;;;;;;5071827;28;20371;-62
2022/12/23 06:03:50;;;;;;;1.00;0.87;;;;;;;;;;5071650;28;20111;-63
2022/12/23 06:06:16;;;;;;;1.53;1.17;;;;;;;;;;5071895;28;20031;-62
2022/12/23 06:08:43;;;;;;;1.97;1.33;;;;;;;;;;5072098;28;20483;-62
2022/12/23 06:11:11;;;;;;;3.83;2.20;;;;;;;;;;5070512;28;20031;-63
2022/12/23 06:13:38;;;;;;;4.97;2.20;;;;;;;;;;5070433;28;20092;-63
2022/12/23 06:16:05;;;;;;;2.33;1.67;;;;;;;;;;5069949;28;20023;-63
2022/12/23 06:18:31;;;;;;;3.00;2.00;;;;;;;;;;5071044;28;20551;-62
2022/12/23 06:20:58;;;;;;;1.77;1.37;;;;;;;;;;5075682;28;20052;-62
2022/12/23 06:23:25;;;;;;;2.97;2.03;;;;;;;;;;5076035;28;20074;-62
2022/12/23 06:25:57;;;;;;;2.27;1.40;;;;;;;;;;5075396;28;20020;-62
2022/12/23 06:28:24;;;;;;;4.83;1.93;;;;;;;;;;5075151;28;20486;-62
2022/12/23 06:30:54;;;;;;;1.60;1.23;;;;;;;;;;5074153;28;20127;-66
2022/12/23 06:33:21;;;;;;;1.53;1.30;;;;;;;;;;5070266;28;20333;-62
2022/12/23 06:35:48;;;;;;;2.00;1.40;;;;;;;;;;5070157;28;20020;-63
2022/12/23 06:38:15;;;;;;;2.07;1.23;;;;;;;;;;5069872;28;20024;-62
2022/12/23 06:40:42;;;;;;;7.10;2.27;;;;;;;;;;5070279;28;20047;-63
2022/12/23 06:43:10;;;;;;;2.00;1.50;;;;;;;;;;5075384;28;20371;-62
2022/12/23 06:45:36;;;;;;;1.40;1.00;;;;;;;;;;5075051;28;20032;-62
2022/12/23 06:48:03;;;;;;;1.43;1.20;;;;;;;;;;5075012;28;20028;-62
2022/12/23 06:50:30;;;;;;;5.83;2.23;;;;;;;;;;5075048;28;20060;-62
2022/12/23 06:52:57;;;;;;;3.33;2.37;;;;;;;;;;5073867;28;20021;-62
2022/12/23 06:55:23;;;;;;;1.73;1.40;;;;;;;;;;5069737;28;20029;-63
2022/12/23 06:57:50;;;;;;;3.30;1.73;;;;;;;;;;5069784;28;20036;-62
2022/12/23 07:00:17;;;;;;;3.33;1.73;;;;;;;;;;5069553;28;20383;-62
2022/12/23 07:02:43;;;;;;;3.07;1.70;;;;;;;;;;5069355;28;20410;-66
2022/12/23 07:05:10;;;;;;;5.90;2.03;;;;;;;;;;5074794;28;20021;-62
2022/12/23 07:07:37;;;;;;;5.33;2.60;;;;;;;;;;5074962;28;20054;-62
2022/12/23 07:10:04;;;;;;;8.10;2.50;;;;;;;;;;5075031;28;20032;-62
2022/12/23 07:12:30;;;;;;;1.37;1.03;;;;;;;;;;5074433;28;20020;-62
2022/12/23 07:14:57;;;;;;;4.53;2.20;;;;;;;;;;5074464;28;20017;-62
2022/12/23 07:17:24;;;;;;;6.20;1.87;;;;;;;;;;5069172;28;20037;-62
2022/12/23 07:19:50;;;;;;;1.80;1.40;;;;;;;;;;5068114;28;20417;-65
2022/12/23 07:22:17;;;;;;;2.67;1.80;;;;;;;;;;5068971;28;20098;-62
2022/12/23 07:24:44;;;;;;;2.00;1.33;;;;;;;;;;5068976;28;20040;-62
2022/12/23 07:27:10;;;;;;;2.93;1.67;;;;;;;;;;5074084;28;20025;-62
2022/12/23 07:29:37;;;;;;;1.03;0.90;;;;;;;;;;5074310;28;20039;-62
2022/12/23 07:32:04;;;;;;;2.77;2.07;;;;;;;;;;5074501;28;20468;-61
2022/12/23 07:34:31;;;;;;;3.50;1.67;;;;;;;;;;5074232;28;20024;-62
2022/12/23 07:36:57;;;;;;;2.90;2.23;;;;;;;;;;5074228;28;20056;-62
2022/12/23 07:39:24;;;;;;;6.53;2.43;;;;;;;;;;5069107;28;20025;-62
2022/12/23 07:41:51;;;;;;;1.33;1.17;;;;;;;;;;5068788;28;20040;-62
2022/12/23 07:44:17;;;;;;;2.37;1.53;;;;;;;;;;5068841;28;20089;-62
2022/12/23 07:46:44;;;;;;;2.23;1.73;;;;;;;;;;5068260;28;20483;-62
2022/12/23 07:49:11;;;;;;;4.10;2.10;;;;;;;;;;5073727;28;20032;-61
2022/12/23 07:51:37;;;;;;;7.93;1.87;;;;;;;;;;5074097;28;20379;-62
2022/12/23 07:54:04;;;;;;;4.53;2.57;;;;;;;;;;5073665;28;20123;-62
2022/12/23 07:56:31;;;;;;;8.93;1.77;;;;;;;;;;5074038;28;20091;-62
2022/12/23 07:58:57;;;;;;;6.77;1.60;;;;;;;;;;5074117;28;20490;-61
2022/12/23 08:01:24;;;;;;;3.93;2.27;;;;;;;;;;5068899;28;20490;-62
2022/12/23 08:03:51;;;;;;;5.23;2.50;;;;;;;;;;5068339;28;20020;-62
2022/12/23 08:06:17;;;;;;;3.13;1.97;;;;;;;;;;5067844;28;20025;-62
2022/12/23 08:08:45;;;;;;;6.40;3.00;;;;;;;;;;5068207;28;20375;-63
2022/12/23 08:11:13;;;;;;;3.57;2.80;;;;;;;;;;5072416;28;20471;-62
2022/12/23 08:13:41;;;;;;;10.13;2.37;;;;;;;;;;5073950;28;20082;-62
2022/12/23 08:16:08;;;;;;;1.53;1.30;;;;;;;;;;5073475;28;20016;-62
2022/12/23 08:18:36;;;;;;;3.37;2.13;;;;;;;;;;5073436;28;20028;-62
2022/12/23 08:21:04;;;;;;;2.33;1.90;;;;;;;;;;5073379;28;20036;-62
2022/12/23 08:23:31;;;;;;;4.20;2.07;;;;;;;;;;5068496;28;20483;-66
2022/12/23 08:25:59;;;;;;;1.73;1.30;;;;;;;;;;5067896;28;20033;-62
2022/12/23 08:28:26;;;;;;;2.67;2.20;;;;;;;;;;5067499;28;20028;-62
2022/12/23 08:30:53;;;;;;;3.10;2.23;;;;;;;;;;5067678;28;20029;-62
2022/12/23 08:33:19;;;;;;;2.17;1.33;;;;;;;;;;5071709;28;20278;-62
2022/12/23 08:35:46;;;;;;;1.90;1.33;;;;;;;;;;5073424;28;20024;-62
2022/12/23 08:38:13;;;;;;;6.73;3.37;;;;;;;;;;5073191;28;20024;-62
2022/12/23 08:40:40;;;;;;;4.27;1.97;;;;;;;;;;5072537;28;20120;-62
2022/12/23 08:43:06;;;;;;;6.70;2.80;;;;;;;;;;5072874;28;20360;-62
2022/12/23 08:45:37;;;;;;;1.53;1.37;;;;;;;;;;5051584;28;20051;-62
2022/12/23 08:48:04;;;;;;;2.27;1.83;;;;;;;;;;5052124;28;20016;-62
2022/12/23 08:50:31;;;;;;;3.30;2.60;;;;;;;;;;5067751;28;20107;-61
2022/12/23 08:52:58;;;;;;;7.10;3.00;;;;;;;;;;5067468;28;20035;-62
2022/12/23 08:55:24;;;;;;;4.20;3.20;;;;;;;;;;5070671;28;20659;-65
2022/12/23 08:57:51;;;;;;;4.53;2.10;;;;;;;;;;5073099;28;20257;-62
2022/12/23 09:00:18;;;;;;;5.67;3.07;;;;;;;;;;5068160;28;20666;-61
2022/12/23 09:02:44;;;;;;;3.17;2.53;;;;;;;;;;5053001;28;20254;-61
2022/12/23 09:05:11;;;;;;;3.90;2.13;;;;;;;;;;5052835;28;20024;-62
2022/12/23 09:07:38;;;;;;;3.90;2.87;;;;;;;;;;5049139;28;20311;-62
2022/12/23 09:10:05;;;;;;;2.50;2.00;;;;;;;;;;5047489;28;20254;-61
2022/12/23 09:12:32;;;;;;;2.83;1.87;;;;;;;;;;5046739;28;20622;-62
2022/12/23 09:14:58;;;;;;;2.03;1.67;;;;;;;;;;5047517;28;20655;-62
2022/12/23 09:17:25;;;;;;;3.70;2.40;;;;;;;;;;5056320;28;20269;-61
2022/12/23 09:19:52;;;;;;;2.20;1.83;;;;;;;;;;5072095;28;20263;-62
2022/12/23 09:22:18;;;;;;;2.93;2.43;;;;;;;;;;5072327;28;20293;-61
2022/12/23 09:24:45;;;;;;;2.97;2.07;;;;;;;;;;5072288;28;20651;-62
2022/12/23 09:27:12;;;;;;;5.93;1.87;;;;;;;;;;5071841;28;20336;-65
2022/12/23 09:29:38;;;;;;;2.17;1.77;;;;;;;;;;5068816;28;20277;-61
2022/12/23 09:32:05;;;;;;;4.00;2.47;;;;;;;;;;5066958;28;20372;-62
2022/12/23 09:34:32;;;;;;;3.47;1.87;;;;;;;;;;5067031;28;20257;-62
2022/12/23 09:36:58;;;;;;;2.70;2.27;;;;;;;;;;5066818;28;20593;-62
2022/12/23 09:39:25;;;;;;;1.57;1.40;;;;;;;;;;5069486;28;20274;-61
2022/12/23 09:42:00;;;;;;;3.50;2.53;;;;;;;;;;5071892;28;20292;-62
2022/12/23 09:44:26;;;;;;;1.73;1.48;;;;;;;;;;5071450;28;20280;-61
2022/12/23 09:47:03;;;;;;;1.67;1.20;;;;;;;;;;5072380;28;20471;-61
2022/12/23 09:49:30;;;;;;;2.47;1.87;;;;;;;;;;5055929;28;20257;-61
2022/12/23 09:51:59;;;;;;;2.70;2.13;;;;;;;;;;5068185;28;20261;-61
2022/12/23 09:54:30;;;;;;;2.97;2.17;;;;;;;;;;5066521;28;20300;-65
2022/12/23 09:57:15;;;;;;;3.00;2.30;;;;;;;;;;5066641;28;20727;-61
2022/12/23 09:59:54;;;;;;;5.00;2.20;;;;;;;;;;5066765;28;20853;-61
2022/12/23 10:02:24;;;;;;;1.53;1.33;;;;;;;;;;5070260;28;20064;-61
2022/12/23 10:04:57;;;;;;;3.20;2.23;;;;;;;;;;5071926;28;20609;-62
2022/12/23 10:07:29;;;;;;;2.80;2.03;;;;;;;;;;5071761;28;20270;-61
2022/12/23 10:09:58;;;;;;;1.50;1.40;;;;;;;;;;5072214;28;20692;-61
2022/12/23 10:12:36;;;;;;;3.47;2.40;;;;;;;;;;5071830;28;20284;-61
2022/12/23 10:15:06;;;;;;;3.03;2.53;;;;;;;;;;5066285;28;20263;-61
2022/12/23 10:17:40;;;;;;;1.73;1.50;;;;;;;;;;5066393;28;20355;-61
2022/12/23 10:20:13;;;;;;;2.10;1.77;;;;;;;;;;5066228;28;20586;-61
2022/12/23 10:22:44;;;;;;;1.83;1.63;;;;;;;;;;5066142;28;20269;-61
2022/12/23 10:25:13;;;;;;;4.53;2.73;;;;;;;;;;5071604;28;20268;-61
2022/12/23 10:27:41;;;;;;;13.83;1.90;;;;;;;;;;5071327;28;20250;-61
2022/12/23 10:30:12;;;;;;;4.53;2.90;;;;;;;;;;5071761;28;20280;-62
2022/12/23 10:32:45;;;;;;;2.33;2.13;;;;;;;;;;5071784;28;20258;-61
2022/12/23 10:35:21;;;;;;;3.77;1.83;;;;;;;;;;5071117;28;20257;-61
2022/12/23 10:37:50;;;;;;;3.07;1.93;;;;;;;;;;5066136;28;20268;-61
2022/12/23 10:40:17;;;;;;;2.90;2.17;;;;;;;;;;5066247;28;20295;-62
2022/12/23 10:42:44;;;;;;;6.37;3.60;;;;;;;;;;5066316;28;20288;-61
2022/12/23 10:45:17;;;;;;;2.43;1.83;;;;;;;;;;5066398;28;20323;-61
2022/12/23 10:48:10;;;;;;;3.37;2.23;;;;;;;;;;5071368;28;20273;-61
2022/12/23 10:50:45;;;;;;;2.83;2.53;;;;;;;;;;5067412;28;20371;-61
2022/12/23 10:53:14;;;;;;;3.85;2.70;;;;;;;;;;5070927;28;20269;-61
2022/12/23 10:55:41;;;;;;;4.40;2.97;;;;;;;;;;5074303;28;20029;-61
2022/12/23 10:58:13;;;;;;;3.63;2.50;;;;;;;;;;5072180;28;20348;-61
2022/12/23 11:00:42;;;;;;;4.23;2.90;;;;;;;;;;5069466;28;20319;-61
2022/12/23 11:03:16;;;;;;;5.30;1.80;;;;;;;;;;5069538;28;20268;-62
2022/12/23 11:05:44;;;;;;;4.37;3.30;;;;;;;;;;5069833;28;20265;-62
2022/12/23 11:08:11;;;;;;;3.03;2.30;;;;;;;;;;5071526;28;20265;-61
2022/12/23 11:10:39;;;;;;;3.13;2.13;;;;;;;;;;5074249;28;20301;-63
2022/12/23 11:13:06;;;;;;;1.47;1.30;;;;;;;;;;5074959;28;20763;-61
2022/12/23 11:15:40;;;;;;;2.33;1.57;;;;;;;;;;5074970;28;20261;-61
2022/12/23 11:18:12;;;;;;;2.57;1.70;;;;;;;;;;5074807;28;20348;-61
2022/12/23 11:20:43;;;;;;;4.00;2.70;;;;;;;;;;5071517;28;20320;-61
2022/12/23 11:23:24;;;;;;;6.90;3.60;;;;;;;;;;5069032;28;20307;-62
2022/12/23 11:25:59;;;;;;;4.10;2.70;;;;;;;;;;5068868;28;20311;-61
2022/12/23 11:28:26;;;;;;;2.80;1.77;;;;;;;;;;5068783;28;20330;-61
2022/12/23 11:30:57;;;;;;;3.10;2.10;;;;;;;;;;5072703;28;20093;-61
2022/12/23 11:33:28;;;;;;;3.00;2.17;;;;;;;;;;5074321;28;20308;-61
2022/12/23 11:36:14;;;;;;;1.97;1.50;;;;;;;;;;5074476;28;20272;-61
2022/12/23 11:38:40;;;;;;;;;;;;;;;;;;5074905;28;20357;-61
2022/12/23 11:41:07;;;;;;;2.07;1.53;;;;;;;;;;5074222;28;19916;-61
2022/12/23 11:43:34;;;;;;;2.97;1.93;;;;;;;;;;5069261;28;20279;-61
2022/12/23 11:46:18;;;;;;;7.43;1.83;;;;;;;;;;5069070;28;20260;-61
2022/12/23 11:48:46;;;;;;;3.83;2.70;;;;;;;;;;5068724;28;20811;-61
2022/12/23 11:51:12;;;;;;;3.80;2.60;;;;;;;;;;5068811;28;20268;-61
2022/12/23 11:53:42;;;;;;;4.80;2.53;;;;;;;;;;5072918;28;20621;-65
2022/12/23 11:56:12;;;;;;;2.17;1.97;;;;;;;;;;5073869;28;20768;-61
2022/12/23 11:58:46;;;;;;;4.77;2.43;;;;;;;;;;5073889;28;20383;-61
2022/12/23 12:01:21;;;;;;;3.80;2.63;;;;;;;;;;5073906;28;20624;-61
2022/12/23 12:03:50;;;;;;;1.45;1.30;;;;;;;;;;5073446;28;20268;-61
2022/12/23 12:06:18;;;;;;;5.87;2.40;;;;;;;;;;5067507;28;20036;-61
2022/12/23 12:08:49;;;;;;;2.93;2.17;;;;;;;;;;5068385;28;20760;-61
2022/12/23 12:11:22;;;;;;;4.47;2.70;;;;;;;;;;5068425;28;20265;-61
2022/12/23 12:13:49;;;;;;;2.47;1.63;;;;;;;;;;5068361;28;20330;-61
2022/12/23 12:16:22;;;;;;;3.77;2.93;;;;;;;;;;5073644;28;20262;-61
2022/12/23 12:18:50;;;;;;;3.00;1.83;;;;;;;;;;5073479;28;20289;-61
2022/12/23 12:21:22;;;;;;;5.70;2.87;;;;;;;;;;5073717;28;20358;-61
2022/12/23 12:23:58;;;;;;;1.40;1.10;;;;;;;;;;5073280;28;20723;-61
2022/12/23 12:26:30;;;;;;;1.63;1.40;;;;;;;;;;5072338;28;20253;-61
2022/12/23 12:29:02;;;;;;;1.53;1.30;;;;;;;;;;5067214;28;20269;-61
2022/12/23 12:31:38;;;;;;;4.60;1.60;;;;;;;;;;5068129;28;20297;-61
2022/12/23 12:34:23;;;;;;;4.60;3.23;;;;;;;;;;5067932;28;20960;-61
2022/12/23 12:36:52;;;;;;;1.45;1.27;;;;;;;;;;5069214;28;20596;-63
2022/12/23 12:39:37;;;;;;;1.33;1.23;;;;;;;;;;5073168;28;20028;-62
2022/12/23 12:42:24;;;;;;;4.57;3.90;;;;;;;;;;5073261;28;20358;-61
2022/12/23 12:45:02;;;;;;;1.37;1.27;;;;;;;;;;5056265;28;20480;-61
2022/12/23 12:47:52;;;;;;;8.37;3.10;;;;;;;;;;5072838;28;20612;-61
2022/12/23 12:50:27;;;;;;;2.97;2.20;;;;;;;;;;5054868;28;20723;-61
2022/12/23 12:52:56;;;;;;;3.58;2.15;;;;;;;;;;5067180;28;20265;-62
2022/12/23 12:55:28;;;;;;;3.50;2.57;;;;;;;;;;5067490;28;20680;-61
2022/12/23 12:57:54;;;;;;;4.07;2.63;;;;;;;;;;5066949;28;20738;-61
2022/12/23 13:00:22;;;;;;;3.10;2.50;;;;;;;;;;5072021;28;20265;-61
2022/12/23 13:03:01;;;;;;;5.27;3.53;;;;;;;;;;5063239;28;20274;-61
2022/12/23 13:05:37;;;;;;;20.40;7.83;;;;;;;;;;5072851;28;20254;-61
2022/12/23 13:08:22;;;;;;;4.70;3.43;;;;;;;;;;5072720;28;20269;-61
2022/12/23 13:10:53;;;;;;;3.83;2.88;;;;;;;;;;5071266;28;20352;-61
2022/12/23 13:13:20;;;;;;;8.90;5.37;;;;;;;;;;5067283;28;20024;-61
2022/12/23 13:16:05;;;;;;;6.83;5.07;;;;;;;;;;5066824;28;20322;-61
2022/12/23 13:18:41;;;;;;;4.78;3.25;;;;;;;;;;5065946;28;20287;-61
2022/12/23 13:21:13;;;;;;;12.03;4.63;;;;;;;;;;5048531;28;20033;-62
2022/12/23 13:23:46;;;;;;;19.47;4.97;;;;;;;;;;5061772;28;20277;-61
2022/12/23 13:26:18;;;;;;;8.27;6.67;;;;;;;;;;5071977;28;20607;-61
2022/12/23 13:28:52;;;;;;;5.33;3.70;;;;;;;;;;5072026;28;20314;-61
2022/12/23 13:31:33;;;;;;;5.28;3.38;;;;;;;;;;5067313;28;20315;-61
2022/12/23 13:34:09;;;;;;;6.03;3.63;;;;;;;;;;5068478;28;20494;-61
2022/12/23 13:36:48;;;;;;;5.93;3.83;;;;;;;;;;5066674;28;20249;-61
2022/12/23 13:39:30;;;;;;;6.47;4.20;;;;;;;;;;5065084;28;20297;-61
2022/12/23 13:42:00;;;;;;;4.70;3.30;;;;;;;;;;5065795;28;20595;-61
2022/12/23 13:44:27;;;;;;;8.97;3.90;;;;;;;;;;5070056;28;20323;-61
2022/12/23 13:46:56;;;;;;;6.20;3.90;;;;;;;;;;5072333;28;20295;-61
2022/12/23 13:49:26;;;;;;;4.70;2.77;;;;;;;;;;5071992;28;20273;-64
2022/12/23 13:51:57;;;;;;;15.53;5.53;;;;;;;;;;5071990;28;20617;-61
2022/12/23 13:54:38;;;;;;;6.07;4.10;;;;;;;;;;5071891;28;20833;-61
2022/12/23 13:57:09;;;;;;;8.37;4.83;;;;;;;;;;5066625;28;20724;-61
2022/12/23 13:59:40;;;;;;;8.53;4.37;;;;;;;;;;5065918;28;20269;-62
2022/12/23 14:02:26;;;;;;;6.63;4.23;;;;;;;;;;5065794;28;20315;-62
2022/12/23 14:04:58;;;;;;;4.00;2.73;;;;;;;;;;5049304;28;20309;-61
2022/12/23 14:07:27;;;;;;;4.13;2.87;;;;;;;;;;5071951;28;20254;-62
2022/12/23 14:09:56;;;;;;;6.03;3.50;;;;;;;;;;5051615;28;21384;-62
2022/12/23 14:12:30;;;;;;;6.43;3.73;;;;;;;;;;5052241;28;20254;-61
2022/12/23 14:15:12;;;;;;;3.10;2.28;;;;;;;;;;5071673;28;20036;-61
2022/12/23 14:17:51;;;;;;;4.30;2.90;;;;;;;;;;5069430;28;20103;-61
2022/12/23 14:20:25;;;;;;;4.73;2.97;;;;;;;;;;5066002;28;20028;-62
2022/12/23 14:23:05;;;;;;;4.65;1.73;;;;;;;;;;5065923;28;20086;-62
2022/12/23 14:25:37;;;;;;;3.67;2.40;;;;;;;;;;5066358;28;20475;-62
2022/12/23 14:28:04;;;;;;;3.40;1.97;;;;;;;;;;5068119;28;20031;-62
2022/12/23 14:30:31;;;;;;;7.10;2.63;;;;;;;;;;5074061;28;21176;-61
2022/12/23 14:32:59;;;;;;;3.87;2.97;;;;;;;;;;5071279;28;20023;-62
2022/12/23 14:35:25;;;;;;;19.53;4.83;;;;;;;;;;5075012;28;20027;-61
2022/12/23 14:38:10;;;;;;;6.67;3.97;;;;;;;;;;5075005;28;20020;-61
2022/12/23 14:40:37;;;;;;;9.68;4.85;;;;;;;;;;5071789;28;20391;-61
2022/12/23 14:43:22;;;;;;;3.50;2.67;;;;;;;;;;5069893;28;20074;-62
2022/12/23 14:45:59;;;;;;;35.97;5.22;;;;;;;;;;5069985;28;20033;-61
2022/12/23 14:48:44;;;;;;;5.50;3.30;;;;;;;;;;5069293;28;20024;-62
2022/12/23 14:51:14;;;;;;;8.32;3.60;;;;;;;;;;5069440;28;20029;-62
2022/12/23 15:09:47;;;;;;;11.87;4.10;;;;;;;;;;5084241;27;20830;-65
2022/12/23 15:12:26;;;;;;;6.67;4.57;;;;;;;;;;5082207;28;20457;-63
2022/12/23 15:14:56;;;;;;;9.63;4.70;;;;;;;;;;5081063;28;20394;-62
2022/12/23 15:17:34;;;;;;;9.73;4.17;;;;;;;;;;5084720;28;20019;-66
2022/12/23 15:20:12;;;;;;;9.60;3.27;;;;;;;;;;5089307;28;20036;-62
2022/12/23 15:22:40;;;;;;;14.33;3.90;;;;;;;;;;5088337;28;20105;-63
2022/12/23 15:25:19;;;;;;;5.57;3.00;;;;;;;;;;5080951;28;20066;-63
2022/12/23 15:27:46;;;;;;;3.30;1.97;;;;;;;;;;5086572;28;20498;-63
2022/12/23 15:30:13;;;;;;;3.90;2.60;;;;;;;;;;5085736;28;20039;-62
2022/12/23 15:32:41;;;;;;;2.67;2.07;;;;;;;;;;5083428;28;20112;-63
2022/12/23 15:35:11;;;;;;;6.30;2.80;;;;;;;;;;5083734;28;20536;-63
2022/12/23 15:37:38;;;;;;;3.50;2.77;;;;;;;;;;5079916;28;20036;-62
2022/12/23 15:40:06;;;;;;;4.70;2.93;;;;;;;;;;5085807;28;20041;-64
2022/12/23 15:42:37;;;;;;;3.17;2.13;;;;;;;;;;5088599;28;20027;-63
2022/12/23 15:45:36;;;;;;;2.47;1.70;;;;;;;;;;5088253;28;20051;-63